Time;durP1;ratioP1;P1;durP2;ratioP2;P2;SDS_P1;SDS_P2;PMS_P1;PMS_P2;Temp;Humidity;BMP_temperature;BMP_pressure;BME280_temperature;BME280_humidity;BME280_pressure;Samples;Min_cycle;Max_cycle;Signal;HPM_P1;HPM_P2
2023/11/10 00:02:18;;;;;;;5.80;1.45;;;9.40;99.90;;;;;;4825302;29;20656;-86
2023/11/10 00:04:48;;;;;;;9.32;1.40;;;9.40;99.90;;;;;;4825149;29;20213;-88
2023/11/10 00:07:14;;;;;;;6.25;1.55;;;9.30;99.90;;;;;;4808373;29;20202;-79
2023/11/10 00:09:40;;;;;;;6.65;1.50;;;9.30;99.90;;;;;;4824866;29;20703;-81
2023/11/10 00:12:06;;;;;;;4.70;1.10;;;9.30;99.90;;;;;;4825001;29;20202;-81
2023/11/10 00:14:33;;;;;;;3.65;1.13;;;9.30;99.90;;;;;;4825400;29;20204;-79
2023/11/10 00:16:59;;;;;;;3.92;1.30;;;9.30;99.90;;;;;;4824928;29;20622;-79
2023/11/10 00:19:24;;;;;;;5.63;1.27;;;9.30;99.90;;;;;;4825218;29;20226;-78
2023/11/10 00:21:50;;;;;;;5.10;1.52;;;9.30;99.90;;;;;;4825451;29;20186;-79
2023/11/10 00:24:16;;;;;;;5.80;1.20;;;9.30;99.90;;;;;;4808485;29;20198;-79
2023/11/10 00:26:42;;;;;;;4.30;1.48;;;9.30;99.90;;;;;;4824837;29;20251;-86
2023/11/10 00:29:08;;;;;;;6.30;1.67;;;9.30;99.90;;;;;;4809121;29;20197;-79
2023/11/10 00:31:34;;;;;;;4.95;1.17;;;9.30;99.90;;;;;;4828537;29;20762;-79
2023/11/10 00:34:00;;;;;;;5.60;1.35;;;9.30;99.90;;;;;;4828317;29;20201;-79
2023/11/10 00:36:26;;;;;;;3.93;1.63;;;9.30;99.90;;;;;;4828334;29;20528;-78
2023/11/10 00:38:52;;;;;;;4.22;1.20;;;9.30;99.90;;;;;;4828177;29;20194;-79
2023/11/10 00:41:19;;;;;;;4.43;1.52;;;9.30;99.90;;;;;;4828075;29;20194;-78
2023/11/10 00:43:46;;;;;;;5.20;1.35;;;9.30;99.90;;;;;;4827783;29;20221;-78
2023/11/10 00:46:12;;;;;;;3.95;1.30;;;9.20;99.90;;;;;;4811930;29;20228;-81
2023/11/10 00:48:38;;;;;;;7.60;1.33;;;9.20;99.90;;;;;;4827993;29;20190;-79
2023/11/10 00:51:04;;;;;;;7.43;1.50;;;9.20;99.90;;;;;;4827956;29;20246;-80
2023/11/10 00:53:30;;;;;;;5.35;1.38;;;9.10;99.90;;;;;;4827951;29;20186;-80
2023/11/10 00:55:56;;;;;;;3.97;1.27;;;9.10;99.90;;;;;;4811502;29;20202;-79
2023/11/10 00:58:21;;;;;;;3.58;0.90;;;9.10;99.90;;;;;;4827755;29;20585;-78
2023/11/10 01:00:47;;;;;;;8.05;1.15;;;9.10;99.90;;;;;;4827795;29;20182;-78
2023/11/10 01:03:14;;;;;;;3.75;1.02;;;9.10;99.90;;;;;;4827789;29;20240;-77
2023/11/10 01:05:39;;;;;;;5.38;1.40;;;9.00;99.90;;;;;;4827674;29;20218;-79
2023/11/10 01:08:09;;;;;;;6.37;1.27;;;9.00;99.90;;;;;;4827661;29;20189;-78
2023/11/10 01:10:36;;;;;;;7.50;1.05;;;9.00;99.90;;;;;;4827458;29;20261;-78
2023/11/10 01:13:03;;;;;;;4.10;1.02;;;9.00;99.90;;;;;;4827356;29;20186;-82
2023/11/10 01:15:29;;;;;;;6.53;1.48;;;9.00;99.90;;;;;;4827651;29;20224;-80
2023/11/10 01:17:55;;;;;;;4.95;1.25;;;8.90;99.90;;;;;;4827568;29;20219;-79
2023/11/10 01:20:21;;;;;;;5.10;1.10;;;8.90;99.90;;;;;;4811329;29;20201;-80
2023/11/10 01:22:47;;;;;;;3.85;1.10;;;8.80;99.90;;;;;;4827535;29;20197;-79
2023/11/10 01:25:13;;;;;;;3.92;1.10;;;8.80;99.90;;;;;;4827066;29;20266;-84
2023/11/10 01:27:44;;;;;;;3.67;1.00;;;8.60;99.90;;;;;;4827107;29;20186;-78
2023/11/10 01:30:13;;;;;;;3.30;1.10;;;8.60;99.90;;;;;;4827006;29;20338;-79
2023/11/10 01:32:38;;;;;;;3.53;0.95;;;8.60;99.90;;;;;;4827433;29;20193;-79
2023/11/10 01:35:04;;;;;;;5.38;0.98;;;8.60;99.90;;;;;;5243249;24;20619;-79
2023/11/10 01:37:30;;;;;;;2.93;1.00;;;8.50;99.90;;;;;;4844934;29;20205;-78
2023/11/10 01:39:57;;;;;;;1.23;0.67;;;8.50;99.90;;;;;;4828967;29;20205;-78
2023/11/10 01:42:22;;;;;;;3.10;0.80;;;8.50;99.90;;;;;;4845736;29;20197;-83
2023/11/10 01:44:48;;;;;;;6.27;1.33;;;8.50;99.90;;;;;;4845433;29;20247;-81
2023/11/10 01:47:14;;;;;;;2.30;0.70;;;8.60;99.90;;;;;;4845533;29;20253;-84
2023/11/10 01:49:41;;;;;;;2.35;0.80;;;8.60;99.90;;;;;;4845513;29;20280;-93
2023/11/10 01:52:07;;;;;;;3.83;0.82;;;8.60;99.90;;;;;;4845141;29;20256;-92
2023/11/10 01:54:36;;;;;;;1.52;0.75;;;8.50;99.90;;;;;;4845285;29;20193;-91
2023/11/10 01:57:03;;;;;;;3.90;1.10;;;8.50;99.90;;;;;;4828472;29;20229;-81
2023/11/10 01:59:31;;;;;;;4.10;0.77;;;8.50;99.90;;;;;;4845389;29;20268;-78
2023/11/10 02:01:57;;;;;;;3.08;0.77;;;8.50;99.90;;;;;;4845158;29;20189;-77
2023/11/10 02:04:23;;;;;;;1.92;0.60;;;8.60;99.90;;;;;;4845224;29;20251;-79
2023/11/10 02:06:51;;;;;;;4.45;1.02;;;8.50;99.90;;;;;;4844236;29;20195;-78
2023/11/10 02:09:17;;;;;;;5.97;0.95;;;8.50;99.90;;;;;;4845339;29;20277;-78
2023/11/10 02:11:43;;;;;;;2.05;0.70;;;8.40;99.90;;;;;;4845358;29;20597;-78
2023/11/10 02:14:12;;;;;;;3.55;0.77;;;8.40;99.90;;;;;;4828337;29;20197;-78
2023/11/10 02:16:39;;;;;;;2.97;0.57;;;8.30;99.90;;;;;;4844816;29;20209;-77
2023/11/10 02:19:06;;;;;;;1.95;0.70;;;8.30;99.90;;;;;;4844978;29;20193;-77
2023/11/10 02:21:33;;;;;;;3.17;0.60;;;8.20;99.90;;;;;;4844753;29;20635;-79
2023/11/10 02:24:09;;;;;;;3.40;0.57;;;8.20;99.90;;;;;;4844894;29;20213;-78
2023/11/10 02:26:35;;;;;;;1.92;0.40;;;8.10;99.90;;;;;;4844818;29;20311;-78
2023/11/10 02:29:01;;;;;;;0.63;0.50;;;8.10;99.90;;;;;;4828183;29;20276;-78
2023/11/10 02:31:27;;;;;;;3.90;0.60;;;8.10;99.90;;;;;;4844588;29;20628;-78
2023/11/10 02:33:53;;;;;;;2.45;0.70;;;8.00;99.90;;;;;;4828031;29;20190;-79
2023/11/10 02:36:20;;;;;;;2.05;1.17;;;8.00;99.90;;;;;;4827652;29;20388;-81
2023/11/10 02:38:46;;;;;;;0.45;0.43;;;7.90;99.90;;;;;;4844493;29;20263;-89
2023/11/10 02:41:12;;;;;;;2.10;0.57;;;7.90;99.90;;;;;;4820601;29;20219;-90
2023/11/10 02:43:38;;;;;;;2.42;0.52;;;7.80;99.90;;;;;;4827700;29;20620;-78
2023/11/10 02:46:04;;;;;;;1.45;0.40;;;7.70;99.90;;;;;;4844476;29;20557;-77
2023/11/10 02:48:31;;;;;;;0.75;0.38;;;7.60;99.90;;;;;;4843812;29;20214;-77
2023/11/10 02:50:57;;;;;;;2.72;0.45;;;7.60;99.90;;;;;;4844190;29;20199;-77
2023/11/10 02:53:23;;;;;;;0.50;0.45;;;7.60;99.90;;;;;;4843964;29;20189;-78
2023/11/10 02:55:49;;;;;;;2.10;0.80;;;7.70;99.90;;;;;;4844044;29;20198;-78
2023/11/10 02:58:18;;;;;;;2.33;0.50;;;7.60;99.90;;;;;;4844180;29;20178;-78
2023/11/10 03:00:44;;;;;;;2.25;0.45;;;7.60;99.90;;;;;;4844049;29;20197;-79
2023/11/10 03:03:13;;;;;;;0.90;0.35;;;7.60;99.90;;;;;;4843819;29;20510;-78
2023/11/10 03:05:39;;;;;;;3.35;0.93;;;7.50;99.90;;;;;;4844363;29;20221;-77
2023/11/10 03:08:05;;;;;;;2.07;0.43;;;7.50;99.90;;;;;;4843796;29;20186;-77
2023/11/10 03:10:32;;;;;;;0.85;0.40;;;7.40;99.90;;;;;;4827655;29;20197;-78
2023/11/10 03:12:58;;;;;;;1.02;0.40;;;7.40;99.90;;;;;;4843750;29;20185;-77
2023/11/10 03:15:24;;;;;;;1.08;0.50;;;7.40;99.90;;;;;;4843755;29;20207;-77
2023/11/10 03:17:49;;;;;;;1.30;0.50;;;7.30;99.90;;;;;;4843250;29;20189;-84
2023/11/10 03:20:15;;;;;;;0.40;0.40;;;7.40;99.90;;;;;;4843926;29;20221;-92
2023/11/10 03:22:42;;;;;;;2.60;0.45;;;7.30;99.90;;;;;;4843575;29;20194;-78
2023/11/10 03:25:08;;;;;;;0.85;0.45;;;7.30;99.90;;;;;;4843466;29;20217;-80
2023/11/10 03:27:34;;;;;;;2.28;0.55;;;7.30;99.90;;;;;;4843468;29;20197;-78
2023/11/10 03:30:00;;;;;;;4.68;0.82;;;7.30;99.90;;;;;;4843666;29;20226;-81
2023/11/10 03:32:25;;;;;;;3.05;0.80;;;7.30;99.90;;;;;;4843807;29;20192;-77
2023/11/10 03:34:51;;;;;;;5.40;0.43;;;7.30;99.90;;;;;;4843429;29;20272;-78
2023/11/10 03:37:20;;;;;;;1.90;0.60;;;7.20;99.90;;;;;;4843291;29;20236;-78
2023/11/10 03:39:46;;;;;;;1.38;0.50;;;7.20;99.90;;;;;;4843504;29;20621;-79
2023/11/10 03:42:11;;;;;;;1.08;0.50;;;7.20;99.90;;;;;;4843346;29;20184;-78
2023/11/10 03:44:37;;;;;;;4.68;0.90;;;7.20;99.90;;;;;;4843306;29;20185;-78
2023/11/10 03:47:03;;;;;;;1.40;0.60;;;7.30;99.90;;;;;;4826784;29;20232;-82
2023/11/10 03:49:29;;;;;;;1.67;0.50;;;7.30;99.90;;;;;;4843651;29;20295;-80
2023/11/10 03:51:55;;;;;;;2.87;0.70;;;7.30;99.90;;;;;;4826847;29;20215;-78
2023/11/10 03:54:22;;;;;;;1.88;0.60;;;7.40;99.90;;;;;;4826884;29;20283;-90
2023/11/10 03:56:48;;;;;;;1.42;0.50;;;7.40;99.90;;;;;;4843170;29;20272;-86
2023/11/10 03:59:14;;;;;;;1.15;0.40;;;7.40;99.90;;;;;;4843306;29;20281;-86
2023/11/10 04:01:40;;;;;;;0.95;0.40;;;7.50;99.90;;;;;;4843348;29;20241;-87
2023/11/10 04:04:09;;;;;;;2.33;0.40;;;7.50;99.90;;;;;;4842216;29;20189;-79
2023/11/10 04:06:35;;;;;;;1.10;0.60;;;7.50;99.90;;;;;;4842943;29;20299;-78
2023/11/10 04:09:02;;;;;;;3.72;0.60;;;7.50;99.90;;;;;;4842896;29;20196;-78
2023/11/10 04:11:29;;;;;;;1.95;0.60;;;7.50;99.90;;;;;;4843104;29;20210;-77
2023/11/10 04:13:55;;;;;;;2.90;0.75;;;7.50;99.90;;;;;;4843257;29;20193;-78
2023/11/10 04:16:22;;;;;;;2.75;0.75;;;7.50;99.90;;;;;;4843117;29;20185;-77
2023/11/10 04:18:52;;;;;;;5.50;0.77;;;7.50;99.90;;;;;;4842845;29;20197;-77
2023/11/10 04:21:26;;;;;;;4.20;0.90;;;7.50;99.90;;;;;;4842921;29;20191;-78
2023/11/10 04:23:52;;;;;;;5.00;0.88;;;7.50;99.90;;;;;;4842973;29;20203;-78
2023/11/10 04:26:18;;;;;;;2.10;0.70;;;7.50;99.90;;;;;;4842946;29;20652;-77
2023/11/10 04:28:48;;;;;;;3.03;1.13;;;7.50;99.90;;;;;;4843077;29;20193;-78
2023/11/10 04:31:17;;;;;;;2.20;1.00;;;7.50;99.90;;;;;;4826933;29;20200;-79
2023/11/10 04:33:43;;;;;;;4.40;1.10;;;7.50;99.90;;;;;;4826518;29;20592;-79
2023/11/10 04:36:10;;;;;;;3.17;0.90;;;7.50;99.90;;;;;;4825965;29;20692;-83
2023/11/10 04:38:36;;;;;;;3.97;1.20;;;7.50;99.90;;;;;;4842601;29;20189;-86
2023/11/10 04:41:02;;;;;;;2.67;1.10;;;7.40;99.90;;;;;;4842920;29;20617;-93
2023/11/10 04:43:29;;;;;;;3.43;0.80;;;7.40;99.90;;;;;;4826097;29;20633;-86
2023/11/10 04:45:55;;;;;;;4.13;0.97;;;7.40;99.90;;;;;;4841841;29;20261;-89
2023/11/10 04:48:21;;;;;;;3.70;0.80;;;7.30;99.90;;;;;;4842375;29;20626;-82
2023/11/10 04:50:47;;;;;;;4.33;1.00;;;7.30;99.90;;;;;;4842672;29;20189;-83
2023/11/10 04:53:13;;;;;;;12.10;1.20;;;7.30;99.90;;;;;;4842190;29;20626;-79
2023/11/10 04:55:42;;;;;;;5.13;1.07;;;7.20;99.90;;;;;;4842671;29;20189;-78
2023/11/10 04:58:08;;;;;;;2.67;0.87;;;7.20;99.90;;;;;;4842799;29;20217;-81
2023/11/10 05:00:34;;;;;;;11.87;1.20;;;7.20;99.90;;;;;;4842856;29;20232;-78
2023/11/10 05:03:06;;;;;;;5.13;1.00;;;7.20;99.90;;;;;;4842787;29;20197;-78
2023/11/10 05:05:34;;;;;;;4.85;0.90;;;7.20;99.90;;;;;;4842699;29;20217;-82
2023/11/10 05:08:02;;;;;;;3.97;1.03;;;7.20;99.90;;;;;;4824262;29;20663;-79
2023/11/10 05:10:29;;;;;;;4.13;0.97;;;7.20;99.90;;;;;;4826563;29;20200;-79
2023/11/10 05:12:55;;;;;;;8.63;1.60;;;7.20;99.90;;;;;;4842618;29;20189;-78
2023/11/10 05:15:20;;;;;;;4.43;1.00;;;7.20;99.90;;;;;;4826479;29;20708;-84
2023/11/10 05:17:46;;;;;;;2.55;0.80;;;7.20;99.90;;;;;;4845744;29;20199;-89
2023/11/10 05:20:14;;;;;;;3.37;0.93;;;7.20;99.90;;;;;;4846047;29;20595;-87
2023/11/10 05:22:46;;;;;;;3.58;0.70;;;7.20;99.90;;;;;;4845908;29;20185;-80
2023/11/10 05:25:11;;;;;;;3.20;0.80;;;7.10;99.90;;;;;;4842225;29;20220;-90
2023/11/10 05:27:38;;;;;;;3.77;1.00;;;7.10;99.90;;;;;;4839131;29;20185;-91
2023/11/10 05:30:06;;;;;;;2.90;0.90;;;7.10;99.90;;;;;;4840220;29;20193;-88
2023/11/10 05:32:31;;;;;;;7.07;0.80;;;7.10;99.90;;;;;;4843037;29;20181;-93
2023/11/10 05:34:58;;;;;;;2.97;0.73;;;7.10;99.90;;;;;;4845079;29;20525;-78
2023/11/10 05:37:27;;;;;;;3.47;0.80;;;7.10;99.90;;;;;;4845495;29;20185;-79
2023/11/10 05:39:53;;;;;;;2.07;0.63;;;7.10;99.90;;;;;;4840033;29;20201;-77
2023/11/10 05:42:21;;;;;;;2.73;0.90;;;7.00;99.90;;;;;;4845659;29;20272;-80
2023/11/10 05:44:48;;;;;;;2.15;0.70;;;7.00;99.90;;;;;;4826176;29;20228;-86
2023/11/10 05:47:14;;;;;;;2.60;0.90;;;7.00;99.90;;;;;;4841731;29;20217;-78
2023/11/10 05:49:41;;;;;;;7.00;0.77;;;7.00;99.90;;;;;;4828291;29;20208;-79
2023/11/10 05:52:07;;;;;;;5.00;0.70;;;6.90;99.90;;;;;;4828475;29;20201;-81
2023/11/10 05:54:33;;;;;;;3.10;0.80;;;6.90;99.90;;;;;;4845421;29;20181;-78
2023/11/10 05:56:58;;;;;;;2.23;0.60;;;6.90;99.90;;;;;;4829029;29;20288;-85
2023/11/10 05:59:25;;;;;;;2.30;0.60;;;7.00;99.90;;;;;;4845722;29;20189;-79
2023/11/10 06:01:51;;;;;;;2.33;0.73;;;7.00;99.90;;;;;;4845204;29;20208;-87
2023/11/10 06:04:18;;;;;;;5.68;0.90;;;7.00;99.90;;;;;;4845156;29;20320;-87
2023/11/10 06:06:44;;;;;;;1.63;0.50;;;7.00;99.90;;;;;;4843956;29;20217;-88
2023/11/10 06:09:11;;;;;;;6.47;0.90;;;7.00;99.90;;;;;;4844369;29;20186;-82
2023/11/10 06:11:37;;;;;;;2.60;0.75;;;7.00;99.90;;;;;;4845067;29;20193;-88
2023/11/10 06:14:03;;;;;;;2.80;0.80;;;7.00;99.90;;;;;;4844812;29;20185;-93
2023/11/10 06:16:29;;;;;;;1.70;0.50;;;7.10;99.90;;;;;;4844918;29;20200;-79
2023/11/10 06:18:56;;;;;;;3.50;0.60;;;7.00;99.90;;;;;;4844835;29;20625;-78
2023/11/10 06:21:23;;;;;;;1.10;0.60;;;7.00;99.90;;;;;;4828395;29;20201;-78
2023/11/10 06:23:53;;;;;;;2.40;0.70;;;7.00;99.90;;;;;;4828162;29;20349;-79
2023/11/10 06:26:23;;;;;;;4.17;0.90;;;7.00;99.90;;;;;;4828358;29;20250;-78
2023/11/10 06:28:51;;;;;;;3.23;0.83;;;7.00;99.90;;;;;;4827471;29;20204;-78
2023/11/10 06:31:20;;;;;;;3.87;0.60;;;7.00;99.90;;;;;;4844833;29;20204;-78
2023/11/10 06:33:48;;;;;;;4.57;0.83;;;7.00;99.90;;;;;;4828133;29;20245;-78
2023/11/10 06:36:17;;;;;;;1.87;0.90;;;7.00;99.90;;;;;;4837116;29;20319;-78
2023/11/10 06:38:44;;;;;;;1.13;0.43;;;7.00;99.90;;;;;;4827913;29;20258;-77
2023/11/10 06:41:14;;;;;;;3.87;0.70;;;7.00;99.90;;;;;;4844368;29;20520;-83
2023/11/10 06:43:41;;;;;;;3.30;0.60;;;7.00;99.90;;;;;;4844512;29;20177;-77
2023/11/10 06:46:07;;;;;;;1.90;0.60;;;7.10;99.90;;;;;;4844367;29;20263;-78
2023/11/10 06:48:33;;;;;;;1.47;0.50;;;7.10;99.90;;;;;;4844527;29;20610;-82
2023/11/10 06:50:59;;;;;;;5.00;0.80;;;7.10;99.90;;;;;;4827952;29;20208;-89
2023/11/10 06:53:25;;;;;;;3.57;0.60;;;7.10;99.90;;;;;;4844280;29;20246;-88
2023/11/10 06:55:51;;;;;;;2.67;0.87;;;7.10;99.90;;;;;;4844244;29;20221;-91
2023/11/10 06:58:17;;;;;;;2.67;1.00;;;7.10;99.90;;;;;;4827783;29;20700;-92
2023/11/10 07:00:46;;;;;;;1.53;0.60;;;7.20;99.90;;;;;;4827836;29;20208;-91
2023/11/10 07:03:16;;;;;;;4.20;0.80;;;7.20;99.90;;;;;;4827607;29;20193;-78
2023/11/10 07:05:42;;;;;;;2.13;0.70;;;7.10;99.90;;;;;;4844152;29;20254;-77
2023/11/10 07:08:11;;;;;;;2.03;0.70;;;7.10;99.90;;;;;;4843738;29;20193;-79
2023/11/10 07:10:41;;;;;;;1.33;0.47;;;7.20;99.90;;;;;;4844110;29;20280;-78
2023/11/10 07:13:16;;;;;;;2.47;0.83;;;7.10;99.90;;;;;;4844084;29;20201;-78
2023/11/10 07:15:42;;;;;;;3.43;0.87;;;7.10;99.90;;;;;;4843802;29;20257;-78
2023/11/10 07:18:08;;;;;;;1.50;0.80;;;7.10;99.90;;;;;;4843502;29;20837;-77
2023/11/10 07:20:34;;;;;;;2.63;0.60;;;7.10;99.90;;;;;;4843774;29;20205;-78
2023/11/10 07:23:00;;;;;;;3.60;0.60;;;7.10;99.90;;;;;;4843308;29;20193;-78
2023/11/10 07:25:28;;;;;;;2.67;0.90;;;7.10;99.90;;;;;;4827318;29;20225;-81
2023/11/10 07:27:54;;;;;;;1.37;0.70;;;7.10;99.90;;;;;;4826892;29;20671;-78
2023/11/10 07:30:21;;;;;;;2.80;0.80;;;7.10;99.90;;;;;;4843555;29;20223;-81
2023/11/10 07:32:47;;;;;;;4.23;0.60;;;7.10;99.90;;;;;;4843648;29;20181;-79
2023/11/10 07:35:13;;;;;;;4.27;0.87;;;7.10;99.90;;;;;;4843344;29;20225;-83
2023/11/10 07:37:44;;;;;;;2.83;0.70;;;7.20;99.90;;;;;;4826963;29;20201;-79
2023/11/10 07:40:18;;;;;;;2.97;0.80;;;7.20;99.90;;;;;;4843327;29;20185;-77
2023/11/10 07:42:47;;;;;;;1.20;0.77;;;7.20;99.90;;;;;;4843461;29;20188;-78
2023/11/10 07:45:14;;;;;;;4.00;1.00;;;7.30;99.90;;;;;;4827127;29;20752;-78
2023/11/10 07:47:48;;;;;;;2.67;0.80;;;7.30;99.90;;;;;;4843197;29;20616;-78
2023/11/10 07:50:16;;;;;;;2.70;0.80;;;7.40;99.90;;;;;;4827108;29;20196;-93
2023/11/10 07:52:43;;;;;;;3.13;0.90;;;7.50;99.90;;;;;;4843091;29;20197;-90
2023/11/10 07:55:09;;;;;;;1.17;0.68;;;7.60;99.90;;;;;;4843367;29;20201;-92
2023/11/10 07:57:35;;;;;;;3.92;0.75;;;7.70;99.90;;;;;;4826899;29;20217;-78
2023/11/10 08:00:03;;;;;;;1.35;0.70;;;7.80;99.90;;;;;;4843333;29;20265;-77
2023/11/10 08:02:29;;;;;;;3.15;0.98;;;7.90;99.90;;;;;;4843238;29;20628;-77
2023/11/10 08:04:55;;;;;;;1.97;0.77;;;8.00;99.90;;;;;;4842881;29;20305;-77
2023/11/10 08:07:22;;;;;;;3.17;0.80;;;8.10;99.90;;;;;;4842620;29;20267;-77
2023/11/10 08:09:49;;;;;;;1.60;0.80;;;8.10;99.90;;;;;;4842922;29;20233;-78
2023/11/10 08:12:15;;;;;;;2.50;0.90;;;8.20;99.90;;;;;;4835666;29;20257;-77
2023/11/10 08:14:40;;;;;;;1.88;0.60;;;8.30;99.90;;;;;;4842880;29;20190;-78
2023/11/10 08:17:07;;;;;;;2.40;0.80;;;8.30;99.90;;;;;;4842609;29;20197;-77
2023/11/10 08:19:33;;;;;;;6.35;1.20;;;8.30;99.90;;;;;;4842677;29;20181;-77
2023/11/10 08:22:00;;;;;;;4.70;1.20;;;8.40;99.90;;;;;;4842429;29;20276;-78
2023/11/10 08:24:26;;;;;;;2.25;0.90;;;8.40;99.90;;;;;;4826344;29;20241;-79
2023/11/10 08:26:55;;;;;;;3.65;1.02;;;8.40;99.90;;;;;;4841992;29;20217;-78
2023/11/10 08:29:21;;;;;;;3.58;1.20;;;8.30;99.90;;;;;;4826311;29;20196;-78
2023/11/10 08:31:49;;;;;;;2.15;0.98;;;8.20;99.90;;;;;;4842640;29;20644;-78
2023/11/10 08:34:15;;;;;;;3.03;0.90;;;8.10;99.90;;;;;;4824920;29;20189;-77
2023/11/10 08:36:41;;;;;;;2.23;0.80;;;8.10;99.90;;;;;;4826239;29;20241;-77
2023/11/10 08:39:07;;;;;;;1.63;0.70;;;8.00;99.90;;;;;;4842368;29;20197;-78
2023/11/10 08:41:33;;;;;;;3.17;0.90;;;8.00;99.90;;;;;;4826042;29;20201;-77
2023/11/10 08:44:00;;;;;;;2.40;1.02;;;8.00;99.90;;;;;;4826415;29;20554;-78
2023/11/10 08:46:25;;;;;;;4.70;0.90;;;8.10;99.90;;;;;;4842583;29;20260;-78
2023/11/10 08:48:51;;;;;;;3.97;0.80;;;8.10;99.90;;;;;;4842477;29;20258;-80
2023/11/10 08:51:18;;;;;;;2.30;0.70;;;8.20;99.90;;;;;;4844607;29;20197;-81
2023/11/10 08:53:44;;;;;;;2.03;0.80;;;8.20;99.90;;;;;;4846054;29;20277;-78
2023/11/10 08:56:11;;;;;;;2.75;0.80;;;8.20;99.90;;;;;;4846239;29;20219;-78
2023/11/10 08:58:38;;;;;;;3.10;0.88;;;8.30;99.90;;;;;;4846087;29;20196;-78
2023/11/10 09:01:06;;;;;;;3.40;0.80;;;8.40;99.90;;;;;;4829657;29;20557;-79
2023/11/10 09:03:31;;;;;;;3.88;0.73;;;8.50;99.90;;;;;;4829639;29;20272;-78
2023/11/10 09:05:58;;;;;;;2.88;0.88;;;8.60;99.90;;;;;;4846033;29;20216;-80
2023/11/10 09:08:24;;;;;;;3.53;0.90;;;8.70;99.90;;;;;;4829455;29;20204;-78
2023/11/10 09:10:50;;;;;;;2.07;0.70;;;8.80;99.90;;;;;;4846086;29;20193;-79
2023/11/10 09:13:16;;;;;;;2.75;1.10;;;8.90;99.90;;;;;;4846124;29;20177;-80
2023/11/10 09:15:42;;;;;;;1.40;0.77;;;9.10;99.90;;;;;;4845948;29;20199;-93
2023/11/10 09:18:07;;;;;;;2.87;0.80;;;9.10;99.90;;;;;;4845762;29;20185;-90
2023/11/10 09:20:33;;;;;;;3.25;0.95;;;9.10;99.90;;;;;;4846007;29;20190;-78
2023/11/10 09:23:00;;;;;;;5.30;1.33;;;9.00;99.90;;;;;;4845695;29;20189;-78
2023/11/10 09:25:27;;;;;;;2.70;0.80;;;9.10;99.90;;;;;;4845925;29;20221;-79
2023/11/10 09:27:57;;;;;;;3.10;1.00;;;9.20;99.90;;;;;;4845149;29;20186;-79
2023/11/10 09:30:24;;;;;;;3.92;0.85;;;9.20;99.90;;;;;;4845738;29;20189;-78
2023/11/10 09:32:51;;;;;;;5.43;1.00;;;9.30;99.90;;;;;;4845792;29;20189;-82
2023/11/10 09:35:17;;;;;;;7.60;0.90;;;9.30;99.90;;;;;;4829159;29;20347;-78
2023/11/10 09:37:46;;;;;;;2.70;0.80;;;9.30;99.90;;;;;;4845677;29;20217;-78
2023/11/10 09:40:13;;;;;;;2.20;0.80;;;9.40;99.90;;;;;;4845661;29;20191;-81
2023/11/10 09:42:42;;;;;;;3.60;0.63;;;9.50;99.90;;;;;;4845737;29;20221;-79
2023/11/10 09:45:12;;;;;;;3.60;0.70;;;9.50;99.90;;;;;;4828993;29;20221;-78
2023/11/10 09:47:40;;;;;;;2.13;0.85;;;9.60;99.90;;;;;;4845709;29;20190;-79
2023/11/10 09:50:08;;;;;;;5.50;0.93;;;9.50;99.90;;;;;;4845427;29;20273;-78
2023/11/10 09:52:35;;;;;;;4.07;0.70;;;9.50;99.90;;;;;;4845186;29;20248;-80
2023/11/10 09:55:01;;;;;;;2.13;0.68;;;9.50;99.90;;;;;;4845322;29;20217;-81
2023/11/10 09:57:28;;;;;;;4.47;0.70;;;9.60;99.90;;;;;;4828958;29;20193;-94
2023/11/10 09:59:56;;;;;;;1.95;0.65;;;9.60;99.90;;;;;;4845511;29;20197;-83
2023/11/10 10:02:22;;;;;;;2.15;0.80;;;9.60;99.90;;;;;;4828754;29;20186;-93
2023/11/10 10:04:48;;;;;;;0.93;0.70;;;9.70;99.90;;;;;;4845107;29;20189;-88
2023/11/10 10:07:15;;;;;;;1.88;0.85;;;9.80;99.90;;;;;;4839545;29;20200;-81
2023/11/10 10:09:42;;;;;;;3.95;0.60;;;9.90;99.90;;;;;;4845203;29;20177;-79
2023/11/10 10:12:10;;;;;;;2.60;0.65;;;9.80;99.90;;;;;;4845124;29;20525;-79
2023/11/10 10:14:37;;;;;;;2.22;0.52;;;9.70;99.90;;;;;;4845373;29;20213;-78
2023/11/10 10:17:03;;;;;;;1.70;0.60;;;9.60;99.90;;;;;;4845142;29;20181;-78
2023/11/10 10:19:32;;;;;;;3.35;0.77;;;9.50;99.90;;;;;;4828790;29;20197;-80
2023/11/10 10:22:02;;;;;;;5.07;0.80;;;9.60;99.90;;;;;;4844985;29;20193;-78
2023/11/10 10:24:28;;;;;;;6.68;0.82;;;9.70;99.90;;;;;;4828337;29;20664;-78
2023/11/10 10:26:55;;;;;;;4.53;0.60;;;9.70;99.90;;;;;;4844963;29;20249;-78
2023/11/10 10:29:21;;;;;;;5.22;0.80;;;9.60;99.90;;;;;;4845248;29;20189;-80
2023/11/10 10:31:48;;;;;;;4.85;1.08;;;9.70;99.90;;;;;;4828800;29;20197;-78
2023/11/10 10:34:15;;;;;;;3.97;1.02;;;9.80;99.90;;;;;;4845785;29;20185;-76
2023/11/10 10:36:44;;;;;;;9.43;1.42;;;9.90;99.90;;;;;;4844819;29;20581;-78
2023/11/10 10:39:15;;;;;;;1.17;0.50;;;9.80;99.90;;;;;;4828313;29;20701;-86
2023/11/10 10:41:44;;;;;;;2.97;0.80;;;9.90;99.90;;;;;;4845213;29;20177;-81
2023/11/10 10:44:10;;;;;;;4.05;1.10;;;9.90;99.90;;;;;;4845285;29;20209;-92
2023/11/10 10:46:37;;;;;;;3.50;0.57;;;9.90;99.90;;;;;;4844988;29;20256;-82
2023/11/10 10:49:06;;;;;;;2.38;0.63;;;9.80;99.90;;;;;;4845203;29;20567;-92
2023/11/10 10:51:37;;;;;;;1.05;0.60;;;9.80;99.90;;;;;;4844894;29;20197;-93
2023/11/10 10:54:05;;;;;;;6.05;0.90;;;9.80;99.90;;;;;;4828391;29;20192;-78
2023/11/10 10:56:34;;;;;;;2.97;0.80;;;9.90;99.90;;;;;;4844939;29;20185;-88
2023/11/10 10:59:00;;;;;;;3.13;1.00;;;10.10;99.90;;;;;;4845075;29;20189;-79
2023/11/10 11:01:27;;;;;;;1.60;0.70;;;10.30;99.90;;;;;;4844861;29;20225;-78
2023/11/10 11:04:09;;;;;;;2.78;0.80;;;10.40;99.90;;;;;;4844430;29;20193;-78
2023/11/10 11:06:54;;;;;;;3.33;0.63;;;10.60;99.90;;;;;;4828475;29;20580;-77
2023/11/10 11:09:25;;;;;;;1.75;0.52;;;10.80;99.90;;;;;;4836508;29;20195;-81
2023/11/10 11:12:09;;;;;;;2.55;0.90;;;10.80;99.90;;;;;;4844711;29;20280;-85
2023/11/10 11:14:44;;;;;;;3.80;0.82;;;10.80;99.90;;;;;;4828034;29;20221;-80
2023/11/10 11:17:47;;;;;;;1.90;0.60;;;10.60;99.90;;;;;;4827973;29;20253;-78
2023/11/10 11:20:16;;;;;;;4.07;0.80;;;10.40;99.90;;;;;;4828050;29;20253;-93
2023/11/10 11:22:49;;;;;;;1.95;0.88;;;10.30;99.90;;;;;;4844037;29;20274;-94
2023/11/10 11:25:18;;;;;;;1.20;0.75;;;10.30;99.90;;;;;;4820660;29;20228;-93
2023/11/10 11:27:44;;;;;;;4.00;0.95;;;10.50;99.90;;;;;;4844547;29;20574;-87
2023/11/10 11:30:12;;;;;;;7.50;0.88;;;10.60;99.90;;;;;;4844326;29;20253;-85
2023/11/10 11:32:41;;;;;;;3.80;0.80;;;10.70;99.90;;;;;;4843824;29;20200;-89
2023/11/10 11:35:17;;;;;;;3.08;0.90;;;10.80;99.90;;;;;;4827992;29;20280;-88
2023/11/10 11:37:44;;;;;;;1.55;0.60;;;10.80;99.90;;;;;;4844041;29;20185;-92
2023/11/10 11:40:11;;;;;;;3.92;0.80;;;10.90;99.90;;;;;;4828091;29;20197;-80
2023/11/10 11:42:39;;;;;;;2.03;0.95;;;11.00;99.90;;;;;;4844331;29;20249;-87
2023/11/10 11:45:15;;;;;;;1.58;0.68;;;10.90;99.90;;;;;;4827986;29;20220;-87
2023/11/10 11:47:43;;;;;;;2.00;0.90;;;10.70;99.90;;;;;;4843978;29;20216;-81
2023/11/10 11:50:10;;;;;;;3.50;1.00;;;10.70;99.90;;;;;;4844174;29;20193;-85
2023/11/10 11:52:36;;;;;;;2.53;0.90;;;10.60;99.90;;;;;;4843942;29;20192;-79
2023/11/10 11:55:03;;;;;;;1.48;0.70;;;10.60;99.90;;;;;;4827942;29;20653;-92
2023/11/10 11:57:34;;;;;;;2.60;0.90;;;10.60;99.90;;;;;;4844171;29;20227;-79
2023/11/10 12:00:02;;;;;;;1.42;0.70;;;10.60;99.90;;;;;;4843703;29;20181;-91
2023/11/10 12:02:29;;;;;;;1.08;0.70;;;10.60;99.90;;;;;;4843988;29;20189;-86
2023/11/10 12:04:54;;;;;;;2.50;0.73;;;10.60;99.90;;;;;;4827367;29;20200;-83
2023/11/10 12:07:22;;;;;;;5.38;0.70;;;10.60;99.90;;;;;;4843769;29;20522;-81
2023/11/10 12:09:48;;;;;;;4.15;1.00;;;10.50;99.90;;;;;;4843690;29;20181;-92
2023/11/10 12:12:14;;;;;;;1.15;0.70;;;10.40;99.90;;;;;;4843762;29;20199;-93
2023/11/10 12:14:39;;;;;;;3.15;0.80;;;10.40;99.90;;;;;;4843411;29;20216;-83
2023/11/10 12:17:06;;;;;;;3.75;0.80;;;10.30;99.90;;;;;;4844000;29;20228;-92
2023/11/10 12:19:32;;;;;;;3.25;0.98;;;10.30;99.90;;;;;;4844575;29;20189;-81
2023/11/10 12:21:59;;;;;;;2.47;0.70;;;10.50;99.90;;;;;;4844671;29;20189;-92
2023/11/10 12:24:30;;;;;;;2.55;0.70;;;10.50;99.90;;;;;;4827707;29;20662;-87
2023/11/10 12:26:59;;;;;;;1.58;0.80;;;10.60;99.90;;;;;;4843707;29;20237;-88
2023/11/10 12:29:28;;;;;;;1.85;0.80;;;10.70;99.90;;;;;;4844519;29;20192;-87
2023/11/10 12:31:54;;;;;;;1.98;0.82;;;10.80;99.90;;;;;;4844593;29;20192;-87
2023/11/10 12:34:20;;;;;;;3.78;0.77;;;11.00;99.90;;;;;;4828029;29;20527;-88
2023/11/10 12:36:47;;;;;;;5.13;1.00;;;10.90;99.90;;;;;;4843985;29;20260;-86
2023/11/10 12:39:19;;;;;;;1.88;0.80;;;10.70;99.90;;;;;;4844144;29;20200;-90
2023/11/10 12:41:46;;;;;;;2.63;1.00;;;10.60;99.90;;;;;;4827790;29;20185;-82
2023/11/10 12:44:17;;;;;;;1.65;0.77;;;10.50;99.90;;;;;;4843964;29;20197;-93
2023/11/10 12:47:12;;;;;;;1.25;0.50;;;10.40;99.90;;;;;;4844291;29;20301;-93
2023/11/10 12:49:38;;;;;;;2.10;0.73;;;10.30;99.90;;;;;;4808706;29;20205;-92
2023/11/10 12:52:09;;;;;;;1.90;0.63;;;10.20;99.90;;;;;;4843415;29;20293;-90
2023/11/10 12:54:40;;;;;;;1.67;0.73;;;10.20;99.90;;;;;;4826729;29;20249;-89
2023/11/10 12:57:06;;;;;;;1.48;0.60;;;10.20;99.90;;;;;;4827097;29;20197;-87